sensor_id;sensor_type;location;lat;lon;timestamp;temperature;humidity
30825;DHT22;17550;45.486;12.222;2023-03-20T00:01:13;10.90;99.90
30825;DHT22;17550;45.486;12.222;2023-03-20T00:03:40;10.90;99.90
30825;DHT22;17550;45.486;12.222;2023-03-20T00:06:14;10.90;99.90
30825;DHT22;17550;45.486;12.222;2023-03-20T00:08:40;11.00;99.90
30825;DHT22;17550;45.486;12.222;2023-03-20T00:14:01;11.10;99.90
30825;DHT22;17550;45.486;12.222;2023-03-20T00:16:31;11.10;99.90
30825;DHT22;17550;45.486;12.222;2023-03-20T00:18:57;11.10;99.90
30825;DHT22;17550;45.486;12.222;2023-03-20T00:21:23;11.10;99.90
30825;DHT22;17550;45.486;12.222;2023-03-20T00:23:50;11.10;99.90
30825;DHT22;17550;45.486;12.222;2023-03-20T00:26:17;11.10;99.90
30825;DHT22;17550;45.486;12.222;2023-03-20T00:28:47;11.10;99.90
30825;DHT22;17550;45.486;12.222;2023-03-20T00:34:05;11.20;99.90
30825;DHT22;17550;45.486;12.222;2023-03-20T00:36:32;11.20;99.90
30825;DHT22;17550;45.486;12.222;2023-03-20T00:38:58;11.20;99.90
30825;DHT22;17550;45.486;12.222;2023-03-20T00:47:09;11.30;99.90
30825;DHT22;17550;45.486;12.222;2023-03-20T00:49:38;11.30;99.90
30825;DHT22;17550;45.486;12.222;2023-03-20T00:52:04;11.30;99.90
30825;DHT22;17550;45.486;12.222;2023-03-20T00:54:30;11.30;99.90
30825;DHT22;17550;45.486;12.222;2023-03-20T00:57:08;11.30;99.90
30825;DHT22;17550;45.486;12.222;2023-03-20T00:59:47;11.30;99.90
30825;DHT22;17550;45.486;12.222;2023-03-20T01:02:15;11.30;99.90
30825;DHT22;17550;45.486;12.222;2023-03-20T01:04:41;11.30;99.90
30825;DHT22;17550;45.486;12.222;2023-03-20T01:07:13;11.40;99.90
30825;DHT22;17550;45.486;12.222;2023-03-20T01:09:39;11.30;99.90
30825;DHT22;17550;45.486;12.222;2023-03-20T01:12:05;11.30;99.90
30825;DHT22;17550;45.486;12.222;2023-03-20T01:14:32;11.30;99.90
30825;DHT22;17550;45.486;12.222;2023-03-20T01:16:58;11.30;99.90
30825;DHT22;17550;45.486;12.222;2023-03-20T01:19:24;11.30;99.90
30825;DHT22;17550;45.486;12.222;2023-03-20T01:21:49;11.30;99.90
30825;DHT22;17550;45.486;12.222;2023-03-20T01:24:15;11.30;99.90
30825;DHT22;17550;45.486;12.222;2023-03-20T01:26:43;11.30;99.90
30825;DHT22;17550;45.486;12.222;2023-03-20T01:29:27;11.40;99.90
30825;DHT22;17550;45.486;12.222;2023-03-20T01:31:53;11.40;99.90
30825;DHT22;17550;45.486;12.222;2023-03-20T01:34:19;11.40;99.90
30825;DHT22;17550;45.486;12.222;2023-03-20T01:36:56;11.40;99.90
30825;DHT22;17550;45.486;12.222;2023-03-20T01:39:34;11.40;99.90
30825;DHT22;17550;45.486;12.222;2023-03-20T01:42:01;11.30;99.90
30825;DHT22;17550;45.486;12.222;2023-03-20T01:44:29;11.40;99.90
30825;DHT22;17550;45.486;12.222;2023-03-20T01:46:56;11.30;99.90
30825;DHT22;17550;45.486;12.222;2023-03-20T01:51:49;11.30;99.90
30825;DHT22;17550;45.486;12.222;2023-03-20T02:02:07;11.10;99.90
30825;DHT22;17550;45.486;12.222;2023-03-20T02:04:37;11.10;99.90
30825;DHT22;17550;45.486;12.222;2023-03-20T02:07:05;11.10;99.90
30825;DHT22;17550;45.486;12.222;2023-03-20T02:09:32;11.10;99.90
30825;DHT22;17550;45.486;12.222;2023-03-20T02:11:58;11.20;99.90
30825;DHT22;17550;45.486;12.222;2023-03-20T02:14:25;11.20;99.90
30825;DHT22;17550;45.486;12.222;2023-03-20T02:16:52;11.30;99.90
30825;DHT22;17550;45.486;12.222;2023-03-20T02:19:27;11.30;99.90
30825;DHT22;17550;45.486;12.222;2023-03-20T02:22:20;11.30;99.90
30825;DHT22;17550;45.486;12.222;2023-03-20T02:40:01;11.30;99.90
30825;DHT22;17550;45.486;12.222;2023-03-20T02:47:22;11.20;99.90
30825;DHT22;17550;45.486;12.222;2023-03-20T02:50:16;11.20;99.90
30825;DHT22;17550;45.486;12.222;2023-03-20T02:55:31;11.30;99.90
30825;DHT22;17550;45.486;12.222;2023-03-20T03:03:21;11.10;99.90
30825;DHT22;17550;45.486;12.222;2023-03-20T03:05:57;11.10;99.90
30825;DHT22;17550;45.486;12.222;2023-03-20T03:08:29;11.00;99.90
30825;DHT22;17550;45.486;12.222;2023-03-20T03:11:07;10.90;99.90
30825;DHT22;17550;45.486;12.222;2023-03-20T03:13:54;10.90;99.90
30825;DHT22;17550;45.486;12.222;2023-03-20T03:16:33;10.80;99.90
30825;DHT22;17550;45.486;12.222;2023-03-20T03:19:08;10.70;99.90
30825;DHT22;17550;45.486;12.222;2023-03-20T03:21:36;10.50;99.90
30825;DHT22;17550;45.486;12.222;2023-03-20T03:24:03;10.50;99.90
30825;DHT22;17550;45.486;12.222;2023-03-20T03:26:33;10.40;99.90
30825;DHT22;17550;45.486;12.222;2023-03-20T03:29:03;10.30;99.90
30825;DHT22;17550;45.486;12.222;2023-03-20T03:31:31;10.30;99.90
30825;DHT22;17550;45.486;12.222;2023-03-20T03:33:58;10.20;99.90
30825;DHT22;17550;45.486;12.222;2023-03-20T03:36:36;10.10;99.90
30825;DHT22;17550;45.486;12.222;2023-03-20T03:39:21;10.00;99.90
30825;DHT22;17550;45.486;12.222;2023-03-20T03:41:59;10.10;99.90
30825;DHT22;17550;45.486;12.222;2023-03-20T03:47:23;10.00;99.90
30825;DHT22;17550;45.486;12.222;2023-03-20T03:49:58;10.10;99.90
30825;DHT22;17550;45.486;12.222;2023-03-20T03:52:25;10.10;99.90
30825;DHT22;17550;45.486;12.222;2023-03-20T03:54:58;10.10;99.90
30825;DHT22;17550;45.486;12.222;2023-03-20T03:57:33;10.10;99.90
30825;DHT22;17550;45.486;12.222;2023-03-20T04:00:01;10.10;99.90
30825;DHT22;17550;45.486;12.222;2023-03-20T04:02:29;10.10;99.90
30825;DHT22;17550;45.486;12.222;2023-03-20T04:04:55;10.10;99.90
30825;DHT22;17550;45.486;12.222;2023-03-20T04:07:26;10.10;99.90
30825;DHT22;17550;45.486;12.222;2023-03-20T04:09:52;10.10;99.90
30825;DHT22;17550;45.486;12.222;2023-03-20T04:12:42;10.10;99.90
30825;DHT22;17550;45.486;12.222;2023-03-20T04:15:08;10.20;99.90
30825;DHT22;17550;45.486;12.222;2023-03-20T04:17:34;10.20;99.90
30825;DHT22;17550;45.486;12.222;2023-03-20T04:20:00;10.20;99.90
30825;DHT22;17550;45.486;12.222;2023-03-20T04:22:26;10.20;99.90
30825;DHT22;17550;45.486;12.222;2023-03-20T04:24:52;10.20;99.90
30825;DHT22;17550;45.486;12.222;2023-03-20T04:27:18;10.20;99.90
30825;DHT22;17550;45.486;12.222;2023-03-20T04:29:45;10.10;99.90
30825;DHT22;17550;45.486;12.222;2023-03-20T04:32:11;10.10;99.90
30825;DHT22;17550;45.486;12.222;2023-03-20T04:34:37;10.20;99.90
30825;DHT22;17550;45.486;12.222;2023-03-20T04:37:02;10.20;99.90
30825;DHT22;17550;45.486;12.222;2023-03-20T04:39:30;10.20;99.90
30825;DHT22;17550;45.486;12.222;2023-03-20T04:41:56;10.10;99.90
30825;DHT22;17550;45.486;12.222;2023-03-20T04:44:21;10.10;99.90
30825;DHT22;17550;45.486;12.222;2023-03-20T04:46:47;10.10;99.90
30825;DHT22;17550;45.486;12.222;2023-03-20T04:49:13;10.20;99.90
30825;DHT22;17550;45.486;12.222;2023-03-20T04:51:38;10.10;99.90
30825;DHT22;17550;45.486;12.222;2023-03-20T04:54:04;10.10;99.90
30825;DHT22;17550;45.486;12.222;2023-03-20T04:56:30;10.10;99.90
30825;DHT22;17550;45.486;12.222;2023-03-20T04:58:55;10.10;99.90
30825;DHT22;17550;45.486;12.222;2023-03-20T05:01:21;10.10;99.90
30825;DHT22;17550;45.486;12.222;2023-03-20T05:03:47;10.00;99.90
30825;DHT22;17550;45.486;12.222;2023-03-20T05:06:13;10.00;99.90
30825;DHT22;17550;45.486;12.222;2023-03-20T05:08:39;10.00;99.90
30825;DHT22;17550;45.486;12.222;2023-03-20T05:11:05;9.90;99.90
30825;DHT22;17550;45.486;12.222;2023-03-20T05:13:32;9.90;99.90
30825;DHT22;17550;45.486;12.222;2023-03-20T05:15:58;9.80;99.90
30825;DHT22;17550;45.486;12.222;2023-03-20T05:18:24;9.80;99.90
30825;DHT22;17550;45.486;12.222;2023-03-20T05:20:49;9.70;99.90
30825;DHT22;17550;45.486;12.222;2023-03-20T05:23:15;9.70;99.90
30825;DHT22;17550;45.486;12.222;2023-03-20T05:25:41;9.70;99.90
30825;DHT22;17550;45.486;12.222;2023-03-20T05:28:06;9.80;99.90
30825;DHT22;17550;45.486;12.222;2023-03-20T05:30:32;9.80;99.90
30825;DHT22;17550;45.486;12.222;2023-03-20T05:32:58;9.80;99.90
30825;DHT22;17550;45.486;12.222;2023-03-20T05:35:24;9.80;99.90
30825;DHT22;17550;45.486;12.222;2023-03-20T05:37:49;9.70;99.90
30825;DHT22;17550;45.486;12.222;2023-03-20T05:40:16;9.70;99.90
30825;DHT22;17550;45.486;12.222;2023-03-20T05:42:43;9.70;99.90
30825;DHT22;17550;45.486;12.222;2023-03-20T05:45:09;9.70;99.90
30825;DHT22;17550;45.486;12.222;2023-03-20T05:47:35;9.70;99.90
30825;DHT22;17550;45.486;12.222;2023-03-20T05:50:02;9.70;99.90
30825;DHT22;17550;45.486;12.222;2023-03-20T05:52:28;9.80;99.90
30825;DHT22;17550;45.486;12.222;2023-03-20T05:54:53;9.70;99.90
30825;DHT22;17550;45.486;12.222;2023-03-20T05:57:19;9.80;99.90
30825;DHT22;17550;45.486;12.222;2023-03-20T05:59:46;9.80;99.90
30825;DHT22;17550;45.486;12.222;2023-03-20T06:02:12;9.80;99.90
30825;DHT22;17550;45.486;12.222;2023-03-20T06:04:38;9.80;99.90
30825;DHT22;17550;45.486;12.222;2023-03-20T06:07:04;9.80;99.90
30825;DHT22;17550;45.486;12.222;2023-03-20T06:09:30;9.90;99.90
30825;DHT22;17550;45.486;12.222;2023-03-20T06:11:56;9.80;99.90
30825;DHT22;17550;45.486;12.222;2023-03-20T06:14:22;9.80;99.90
30825;DHT22;17550;45.486;12.222;2023-03-20T06:16:48;9.90;99.90
30825;DHT22;17550;45.486;12.222;2023-03-20T06:19:13;10.00;99.90
30825;DHT22;17550;45.486;12.222;2023-03-20T06:21:39;10.10;99.90
30825;DHT22;17550;45.486;12.222;2023-03-20T06:24:06;10.10;99.90
30825;DHT22;17550;45.486;12.222;2023-03-20T06:26:31;10.10;99.90
30825;DHT22;17550;45.486;12.222;2023-03-20T06:28:57;10.10;99.90
30825;DHT22;17550;45.486;12.222;2023-03-20T06:31:23;10.20;99.90
30825;DHT22;17550;45.486;12.222;2023-03-20T06:33:48;10.10;99.90
30825;DHT22;17550;45.486;12.222;2023-03-20T06:36:15;10.10;99.90
30825;DHT22;17550;45.486;12.222;2023-03-20T06:38:40;10.10;99.90
30825;DHT22;17550;45.486;12.222;2023-03-20T06:41:06;10.20;99.90
30825;DHT22;17550;45.486;12.222;2023-03-20T06:43:32;10.20;99.90
30825;DHT22;17550;45.486;12.222;2023-03-20T06:45:57;10.20;99.90
30825;DHT22;17550;45.486;12.222;2023-03-20T06:48:23;10.20;99.90
30825;DHT22;17550;45.486;12.222;2023-03-20T06:50:50;10.20;99.90
30825;DHT22;17550;45.486;12.222;2023-03-20T06:53:16;10.20;99.90
30825;DHT22;17550;45.486;12.222;2023-03-20T06:55:49;10.20;99.90
30825;DHT22;17550;45.486;12.222;2023-03-20T06:58:15;10.20;99.90
30825;DHT22;17550;45.486;12.222;2023-03-20T07:00:41;10.30;99.90
30825;DHT22;17550;45.486;12.222;2023-03-20T07:03:07;10.40;99.90
30825;DHT22;17550;45.486;12.222;2023-03-20T07:05:33;10.40;99.90
30825;DHT22;17550;45.486;12.222;2023-03-20T07:08:00;10.40;99.90
30825;DHT22;17550;45.486;12.222;2023-03-20T07:10:26;10.50;99.90
30825;DHT22;17550;45.486;12.222;2023-03-20T07:12:52;10.50;99.90
30825;DHT22;17550;45.486;12.222;2023-03-20T07:15:18;10.50;99.90
30825;DHT22;17550;45.486;12.222;2023-03-20T07:17:43;10.60;99.90
30825;DHT22;17550;45.486;12.222;2023-03-20T07:20:09;10.60;99.90
30825;DHT22;17550;45.486;12.222;2023-03-20T07:22:35;10.60;99.90
30825;DHT22;17550;45.486;12.222;2023-03-20T07:25:02;10.60;99.90
30825;DHT22;17550;45.486;12.222;2023-03-20T07:27:28;10.60;99.90
30825;DHT22;17550;45.486;12.222;2023-03-20T07:29:53;10.70;99.90
30825;DHT22;17550;45.486;12.222;2023-03-20T07:32:19;10.70;99.90
30825;DHT22;17550;45.486;12.222;2023-03-20T07:34:45;10.70;99.90
30825;DHT22;17550;45.486;12.222;2023-03-20T07:37:12;10.70;99.90
30825;DHT22;17550;45.486;12.222;2023-03-20T07:39:37;10.80;99.90
30825;DHT22;17550;45.486;12.222;2023-03-20T07:42:03;10.80;99.90
30825;DHT22;17550;45.486;12.222;2023-03-20T07:44:29;10.90;99.90
30825;DHT22;17550;45.486;12.222;2023-03-20T07:46:54;10.90;99.90
30825;DHT22;17550;45.486;12.222;2023-03-20T07:49:20;10.90;99.90
30825;DHT22;17550;45.486;12.222;2023-03-20T07:51:48;11.00;99.90
30825;DHT22;17550;45.486;12.222;2023-03-20T07:54:14;11.00;99.90
30825;DHT22;17550;45.486;12.222;2023-03-20T07:56:40;11.10;99.90
30825;DHT22;17550;45.486;12.222;2023-03-20T07:59:06;11.20;99.90
30825;DHT22;17550;45.486;12.222;2023-03-20T08:01:32;11.20;99.90
30825;DHT22;17550;45.486;12.222;2023-03-20T08:03:58;11.20;99.90
30825;DHT22;17550;45.486;12.222;2023-03-20T08:06:23;11.20;99.90
30825;DHT22;17550;45.486;12.222;2023-03-20T08:08:49;11.20;99.90
30825;DHT22;17550;45.486;12.222;2023-03-20T08:11:18;11.20;99.90
30825;DHT22;17550;45.486;12.222;2023-03-20T08:13:44;11.30;99.90
30825;DHT22;17550;45.486;12.222;2023-03-20T08:16:10;11.20;99.90
30825;DHT22;17550;45.486;12.222;2023-03-20T08:18:36;11.30;99.90
30825;DHT22;17550;45.486;12.222;2023-03-20T08:21:02;11.30;99.90
30825;DHT22;17550;45.486;12.222;2023-03-20T08:23:28;11.30;99.90
30825;DHT22;17550;45.486;12.222;2023-03-20T08:25:54;11.30;99.90
30825;DHT22;17550;45.486;12.222;2023-03-20T08:28:20;11.50;99.90
30825;DHT22;17550;45.486;12.222;2023-03-20T08:30:46;11.50;99.90
30825;DHT22;17550;45.486;12.222;2023-03-20T08:33:13;11.40;99.90
30825;DHT22;17550;45.486;12.222;2023-03-20T08:35:39;11.40;99.90
30825;DHT22;17550;45.486;12.222;2023-03-20T08:38:05;11.40;99.90
30825;DHT22;17550;45.486;12.222;2023-03-20T08:40:31;11.50;99.90
30825;DHT22;17550;45.486;12.222;2023-03-20T08:42:57;11.60;99.90
30825;DHT22;17550;45.486;12.222;2023-03-20T08:45:23;11.60;99.90
30825;DHT22;17550;45.486;12.222;2023-03-20T08:47:51;11.70;99.90
30825;DHT22;17550;45.486;12.222;2023-03-20T08:50:17;11.80;99.90
30825;DHT22;17550;45.486;12.222;2023-03-20T08:52:43;11.80;99.90
30825;DHT22;17550;45.486;12.222;2023-03-20T08:55:12;11.90;99.90
30825;DHT22;17550;45.486;12.222;2023-03-20T08:57:39;12.00;99.90
30825;DHT22;17550;45.486;12.222;2023-03-20T09:00:06;12.00;99.90
30825;DHT22;17550;45.486;12.222;2023-03-20T09:02:32;11.90;99.90
30825;DHT22;17550;45.486;12.222;2023-03-20T09:04:58;11.90;99.90
30825;DHT22;17550;45.486;12.222;2023-03-20T09:07:24;12.00;99.90
30825;DHT22;17550;45.486;12.222;2023-03-20T09:09:50;12.00;99.90
30825;DHT22;17550;45.486;12.222;2023-03-20T09:12:15;12.10;99.90
30825;DHT22;17550;45.486;12.222;2023-03-20T09:14:41;12.10;99.90
30825;DHT22;17550;45.486;12.222;2023-03-20T09:17:07;12.20;99.90
30825;DHT22;17550;45.486;12.222;2023-03-20T09:19:33;12.30;99.90
30825;DHT22;17550;45.486;12.222;2023-03-20T09:21:59;12.30;99.90
30825;DHT22;17550;45.486;12.222;2023-03-20T09:24:25;12.40;99.90
30825;DHT22;17550;45.486;12.222;2023-03-20T09:26:51;12.60;99.90
30825;DHT22;17550;45.486;12.222;2023-03-20T09:29:17;12.60;99.90
30825;DHT22;17550;45.486;12.222;2023-03-20T09:31:43;12.60;99.90
30825;DHT22;17550;45.486;12.222;2023-03-20T09:34:09;12.70;99.90
30825;DHT22;17550;45.486;12.222;2023-03-20T09:36:35;12.60;99.90
30825;DHT22;17550;45.486;12.222;2023-03-20T09:39:01;12.60;99.90
30825;DHT22;17550;45.486;12.222;2023-03-20T09:41:27;12.70;99.90
30825;DHT22;17550;45.486;12.222;2023-03-20T09:52:30;12.60;99.90
30825;DHT22;17550;45.486;12.222;2023-03-20T09:55:04;12.70;99.90
30825;DHT22;17550;45.486;12.222;2023-03-20T09:57:42;12.90;99.90
30825;DHT22;17550;45.486;12.222;2023-03-20T10:00:19;13.00;99.90
30825;DHT22;17550;45.486;12.222;2023-03-20T10:03:05;13.20;99.90
30825;DHT22;17550;45.486;12.222;2023-03-20T10:05:43;13.30;99.90
30825;DHT22;17550;45.486;12.222;2023-03-20T10:08:13;13.50;99.90
30825;DHT22;17550;45.486;12.222;2023-03-20T10:10:48;13.60;99.90
30825;DHT22;17550;45.486;12.222;2023-03-20T10:18:34;13.80;99.90
30825;DHT22;17550;45.486;12.222;2023-03-20T10:21:15;14.10;99.90
30825;DHT22;17550;45.486;12.222;2023-03-20T10:26:21;14.50;99.90
30825;DHT22;17550;45.486;12.222;2023-03-20T10:37:36;15.20;99.90
30825;DHT22;17550;45.486;12.222;2023-03-20T10:45:45;15.00;99.90
30825;DHT22;17550;45.486;12.222;2023-03-20T10:48:20;15.10;99.90
30825;DHT22;17550;45.486;12.222;2023-03-20T10:50:54;15.00;99.90
30825;DHT22;17550;45.486;12.222;2023-03-20T10:56:12;15.10;99.90
30825;DHT22;17550;45.486;12.222;2023-03-20T10:58:41;15.30;99.90
30825;DHT22;17550;45.486;12.222;2023-03-20T11:01:07;15.40;99.90
30825;DHT22;17550;45.486;12.222;2023-03-20T11:03:34;15.40;99.90
30825;DHT22;17550;45.486;12.222;2023-03-20T11:08:45;15.30;99.90
30825;DHT22;17550;45.486;12.222;2023-03-20T11:11:11;15.40;99.90
30825;DHT22;17550;45.486;12.222;2023-03-20T11:13:41;15.20;99.90
30825;DHT22;17550;45.486;12.222;2023-03-20T11:16:23;15.20;99.90
30825;DHT22;17550;45.486;12.222;2023-03-20T11:18:50;15.00;99.90
30825;DHT22;17550;45.486;12.222;2023-03-20T11:21:22;14.90;99.90
30825;DHT22;17550;45.486;12.222;2023-03-20T11:23:49;15.00;99.90
30825;DHT22;17550;45.486;12.222;2023-03-20T11:26:35;15.00;99.90
30825;DHT22;17550;45.486;12.222;2023-03-20T11:29:14;15.00;99.90
30825;DHT22;17550;45.486;12.222;2023-03-20T11:31:41;15.10;99.90
30825;DHT22;17550;45.486;12.222;2023-03-20T11:36:39;15.60;99.90
30825;DHT22;17550;45.486;12.222;2023-03-20T11:39:13;15.50;99.90
30825;DHT22;17550;45.486;12.222;2023-03-20T11:41:47;15.50;99.90
30825;DHT22;17550;45.486;12.222;2023-03-20T11:44:27;15.60;99.90
30825;DHT22;17550;45.486;12.222;2023-03-20T11:49:25;15.60;99.90
30825;DHT22;17550;45.486;12.222;2023-03-20T11:51:52;15.40;99.90
30825;DHT22;17550;45.486;12.222;2023-03-20T11:54:22;15.30;99.90
30825;DHT22;17550;45.486;12.222;2023-03-20T11:56:58;15.30;99.90
30825;DHT22;17550;45.486;12.222;2023-03-20T11:59:35;15.30;99.90
30825;DHT22;17550;45.486;12.222;2023-03-20T12:02:03;15.40;99.90
30825;DHT22;17550;45.486;12.222;2023-03-20T12:04:38;15.50;99.90
30825;DHT22;17550;45.486;12.222;2023-03-20T12:07:31;15.30;99.90
30825;DHT22;17550;45.486;12.222;2023-03-20T12:12:42;15.20;99.90
30825;DHT22;17550;45.486;12.222;2023-03-20T12:17:54;15.10;99.90
30825;DHT22;17550;45.486;12.222;2023-03-20T12:25:48;14.80;99.90
30825;DHT22;17550;45.486;12.222;2023-03-20T12:33:59;15.10;99.90
30825;DHT22;17550;45.486;12.222;2023-03-20T12:36:36;15.20;99.90
30825;DHT22;17550;45.486;12.222;2023-03-20T12:39:14;15.10;99.90
30825;DHT22;17550;45.486;12.222;2023-03-20T12:44:54;15.10;99.90
30825;DHT22;17550;45.486;12.222;2023-03-20T12:56:20;15.70;99.90
30825;DHT22;17550;45.486;12.222;2023-03-20T13:01:52;16.10;99.90
30825;DHT22;17550;45.486;12.222;2023-03-20T13:04:43;16.30;99.90
30825;DHT22;17550;45.486;12.222;2023-03-20T13:07:16;16.40;99.90
30825;DHT22;17550;45.486;12.222;2023-03-20T13:09:48;16.50;99.90
30825;DHT22;17550;45.486;12.222;2023-03-20T13:18:10;16.50;99.90
30825;DHT22;17550;45.486;12.222;2023-03-20T13:20:51;16.70;99.90
30825;DHT22;17550;45.486;12.222;2023-03-20T13:37:32;16.40;99.90
30825;DHT22;17550;45.486;12.222;2023-03-20T13:47:52;16.50;99.90
30825;DHT22;17550;45.486;12.222;2023-03-20T13:58:51;16.70;99.90
30825;DHT22;17550;45.486;12.222;2023-03-20T14:01:27;16.80;99.90
30825;DHT22;17550;45.486;12.222;2023-03-20T14:03:55;16.90;99.90
30825;DHT22;17550;45.486;12.222;2023-03-20T14:08:58;16.90;99.90
30825;DHT22;17550;45.486;12.222;2023-03-20T14:13:57;17.10;99.90
30825;DHT22;17550;45.486;12.222;2023-03-20T14:16:26;17.20;99.90
30825;DHT22;17550;45.486;12.222;2023-03-20T14:21:44;17.40;99.90
30825;DHT22;17550;45.486;12.222;2023-03-20T14:24:13;17.70;99.90
30825;DHT22;17550;45.486;12.222;2023-03-20T14:26:40;17.70;99.90
30825;DHT22;17550;45.486;12.222;2023-03-20T14:31:37;18.10;99.90
30825;DHT22;17550;45.486;12.222;2023-03-20T14:39:44;18.20;99.90
30825;DHT22;17550;45.486;12.222;2023-03-20T14:42:36;17.90;99.90
30825;DHT22;17550;45.486;12.222;2023-03-20T14:53:18;17.60;99.90
30825;DHT22;17550;45.486;12.222;2023-03-20T14:55:51;17.60;99.90
30825;DHT22;17550;45.486;12.222;2023-03-20T15:01:06;17.60;99.90
30825;DHT22;17550;45.486;12.222;2023-03-20T15:03:33;17.50;99.90
30825;DHT22;17550;45.486;12.222;2023-03-20T15:06:04;17.50;99.90
30825;DHT22;17550;45.486;12.222;2023-03-20T15:08:34;17.50;99.90
30825;DHT22;17550;45.486;12.222;2023-03-20T15:11:08;17.60;99.90
30825;DHT22;17550;45.486;12.222;2023-03-20T15:13:35;17.70;99.90
30825;DHT22;17550;45.486;12.222;2023-03-20T15:16:10;17.70;99.90
30825;DHT22;17550;45.486;12.222;2023-03-20T15:18:43;17.70;99.90
30825;DHT22;17550;45.486;12.222;2023-03-20T15:21:14;17.50;99.90
30825;DHT22;17550;45.486;12.222;2023-03-20T15:23:44;17.40;99.90
30825;DHT22;17550;45.486;12.222;2023-03-20T15:26:15;17.30;99.90
30825;DHT22;17550;45.486;12.222;2023-03-20T15:28:42;17.20;99.90
30825;DHT22;17550;45.486;12.222;2023-03-20T15:31:25;17.10;99.90
30825;DHT22;17550;45.486;12.222;2023-03-20T15:33:51;17.00;99.90
30825;DHT22;17550;45.486;12.222;2023-03-20T15:36:20;16.90;99.90
30825;DHT22;17550;45.486;12.222;2023-03-20T15:38:47;16.80;99.90
30825;DHT22;17550;45.486;12.222;2023-03-20T15:41:30;16.80;99.90
30825;DHT22;17550;45.486;12.222;2023-03-20T15:46:48;16.60;99.90
30825;DHT22;17550;45.486;12.222;2023-03-20T15:49:19;16.50;99.90
30825;DHT22;17550;45.486;12.222;2023-03-20T15:51:46;16.40;99.90
30825;DHT22;17550;45.486;12.222;2023-03-20T15:54:16;16.40;99.90
30825;DHT22;17550;45.486;12.222;2023-03-20T15:56:46;16.40;99.90
30825;DHT22;17550;45.486;12.222;2023-03-20T15:59:14;16.30;99.90
30825;DHT22;17550;45.486;12.222;2023-03-20T16:01:43;16.30;99.90
30825;DHT22;17550;45.486;12.222;2023-03-20T16:04:13;16.30;99.90
30825;DHT22;17550;45.486;12.222;2023-03-20T16:07:17;16.20;99.90
30825;DHT22;17550;45.486;12.222;2023-03-20T16:09:43;16.20;99.90
30825;DHT22;17550;45.486;12.222;2023-03-20T16:12:15;16.10;99.90
30825;DHT22;17550;45.486;12.222;2023-03-20T16:14:42;16.10;99.90
30825;DHT22;17550;45.486;12.222;2023-03-20T16:17:13;16.10;99.90
30825;DHT22;17550;45.486;12.222;2023-03-20T16:19:40;16.00;99.90
30825;DHT22;17550;45.486;12.222;2023-03-20T16:22:23;15.90;99.90
30825;DHT22;17550;45.486;12.222;2023-03-20T16:24:49;15.90;99.90
30825;DHT22;17550;45.486;12.222;2023-03-20T16:27:26;15.80;99.90
30825;DHT22;17550;45.486;12.222;2023-03-20T16:29:53;15.70;99.90
30825;DHT22;17550;45.486;12.222;2023-03-20T16:35:02;15.60;99.90
30825;DHT22;17550;45.486;12.222;2023-03-20T16:37:35;15.50;99.90
30825;DHT22;17550;45.486;12.222;2023-03-20T16:42:44;15.50;99.90
30825;DHT22;17550;45.486;12.222;2023-03-20T16:45:36;15.40;99.90
30825;DHT22;17550;45.486;12.222;2023-03-20T16:53:28;15.20;99.90
30825;DHT22;17550;45.486;12.222;2023-03-20T16:55:56;15.20;99.90
30825;DHT22;17550;45.486;12.222;2023-03-20T16:58:31;15.10;99.90
30825;DHT22;17550;45.486;12.222;2023-03-20T17:01:03;15.00;99.90
30825;DHT22;17550;45.486;12.222;2023-03-20T17:03:45;15.00;99.90
30825;DHT22;17550;45.486;12.222;2023-03-20T17:08:59;14.80;99.90
30825;DHT22;17550;45.486;12.222;2023-03-20T17:11:27;14.70;99.90
30825;DHT22;17550;45.486;12.222;2023-03-20T17:13:55;14.60;99.90
30825;DHT22;17550;45.486;12.222;2023-03-20T17:16:21;14.50;99.90
30825;DHT22;17550;45.486;12.222;2023-03-20T17:18:57;14.40;99.90
30825;DHT22;17550;45.486;12.222;2023-03-20T17:21:23;14.30;99.90
30825;DHT22;17550;45.486;12.222;2023-03-20T17:23:49;14.30;99.90
30825;DHT22;17550;45.486;12.222;2023-03-20T17:26:15;14.20;99.90
30825;DHT22;17550;45.486;12.222;2023-03-20T17:28:40;14.10;99.90
30825;DHT22;17550;45.486;12.222;2023-03-20T17:31:12;14.00;99.90
30825;DHT22;17550;45.486;12.222;2023-03-20T17:33:37;13.90;99.90
30825;DHT22;17550;45.486;12.222;2023-03-20T17:36:08;13.90;99.90
30825;DHT22;17550;45.486;12.222;2023-03-20T17:38:39;13.80;99.90
30825;DHT22;17550;45.486;12.222;2023-03-20T17:41:05;13.70;99.90
30825;DHT22;17550;45.486;12.222;2023-03-20T17:43:31;13.60;99.90
30825;DHT22;17550;45.486;12.222;2023-03-20T17:45:57;13.60;99.90
30825;DHT22;17550;45.486;12.222;2023-03-20T17:48:23;13.50;99.90
30825;DHT22;17550;45.486;12.222;2023-03-20T17:50:50;13.50;99.90
30825;DHT22;17550;45.486;12.222;2023-03-20T17:53:22;13.40;99.90
30825;DHT22;17550;45.486;12.222;2023-03-20T17:55:53;13.40;99.90
30825;DHT22;17550;45.486;12.222;2023-03-20T17:58:22;13.30;99.90
30825;DHT22;17550;45.486;12.222;2023-03-20T18:00:52;13.30;99.90
30825;DHT22;17550;45.486;12.222;2023-03-20T18:03:19;13.20;99.90
30825;DHT22;17550;45.486;12.222;2023-03-20T18:05:47;13.20;99.90
30825;DHT22;17550;45.486;12.222;2023-03-20T18:08:18;13.10;99.90
30825;DHT22;17550;45.486;12.222;2023-03-20T18:10:48;13.20;99.90
30825;DHT22;17550;45.486;12.222;2023-03-20T18:13:14;13.10;99.90
30825;DHT22;17550;45.486;12.222;2023-03-20T18:15:43;13.00;99.90
30825;DHT22;17550;45.486;12.222;2023-03-20T18:18:09;13.00;99.90
30825;DHT22;17550;45.486;12.222;2023-03-20T18:20:37;12.90;99.90
30825;DHT22;17550;45.486;12.222;2023-03-20T18:23:06;12.90;99.90
30825;DHT22;17550;45.486;12.222;2023-03-20T18:25:32;12.90;99.90
30825;DHT22;17550;45.486;12.222;2023-03-20T18:27:59;12.80;99.90
30825;DHT22;17550;45.486;12.222;2023-03-20T18:30:37;12.80;99.90
30825;DHT22;17550;45.486;12.222;2023-03-20T18:33:04;12.70;99.90
30825;DHT22;17550;45.486;12.222;2023-03-20T18:35:30;12.70;99.90
30825;DHT22;17550;45.486;12.222;2023-03-20T18:37:57;12.60;99.90
30825;DHT22;17550;45.486;12.222;2023-03-20T18:40:31;12.60;99.90
30825;DHT22;17550;45.486;12.222;2023-03-20T18:42:58;12.50;99.90
30825;DHT22;17550;45.486;12.222;2023-03-20T18:45:25;12.50;99.90
30825;DHT22;17550;45.486;12.222;2023-03-20T18:47:51;12.40;99.90
30825;DHT22;17550;45.486;12.222;2023-03-20T18:50:27;12.40;99.90
30825;DHT22;17550;45.486;12.222;2023-03-20T18:52:55;12.40;99.90
30825;DHT22;17550;45.486;12.222;2023-03-20T18:55:22;12.40;99.90